createdAt,value
2022-08-10T00:01:09.611Z,14.96
2022-08-10T00:03:39.864Z,14.87
2022-08-10T00:06:10.073Z,14.84
2022-08-10T00:08:40.738Z,14.88
2022-08-10T00:11:15.434Z,14.89
2022-08-10T00:13:47.214Z,14.77
2022-08-10T00:16:17.770Z,14.85
2022-08-10T00:18:48.033Z,14.82
2022-08-10T00:21:18.285Z,14.84
2022-08-10T00:23:48.444Z,14.82
2022-08-10T00:26:18.658Z,14.79
2022-08-10T00:28:49.040Z,14.77
2022-08-10T00:31:19.288Z,14.77
2022-08-10T00:33:49.471Z,14.75
2022-08-10T00:36:19.666Z,14.72
2022-08-10T00:38:49.923Z,14.72
2022-08-10T00:41:20.122Z,14.71
2022-08-10T00:43:50.349Z,14.68
2022-08-10T00:46:20.554Z,14.66
2022-08-10T00:49:00.436Z,14.64
2022-08-10T00:51:40.298Z,14.57
2022-08-10T00:54:24.007Z,14.51
2022-08-10T00:57:17.814Z,14.52
2022-08-10T00:59:59.591Z,14.45
2022-08-10T01:02:32.794Z,14.41
2022-08-10T01:05:07.833Z,14.47
2022-08-10T01:07:49.442Z,14.46
2022-08-10T01:10:34.186Z,14.47
2022-08-10T01:13:17.825Z,14.44
2022-08-10T01:16:05.551Z,14.43
2022-08-10T01:18:53.706Z,14.35
2022-08-10T01:21:38.105Z,14.30
2022-08-10T01:24:14.223Z,14.28
2022-08-10T01:27:27.427Z,14.28
2022-08-10T01:30:02.374Z,14.26
2022-08-10T01:32:54.176Z,14.27
2022-08-10T01:35:29.620Z,14.20
2022-08-10T01:38:10.573Z,14.22
2022-08-10T01:40:49.300Z,14.19
2022-08-10T01:43:20.395Z,14.20
2022-08-10T01:45:55.614Z,14.41
2022-08-10T01:48:31.619Z,14.37
2022-08-10T01:51:06.644Z,14.40
2022-08-10T01:53:43.667Z,14.36
2022-08-10T01:56:15.691Z,14.09
2022-08-10T01:58:51.370Z,14.04
2022-08-10T02:01:25.742Z,14.07
2022-08-10T02:04:04.804Z,14.06
2022-08-10T02:06:40.560Z,13.99
2022-08-10T02:09:16.056Z,13.98
2022-08-10T02:12:05.843Z,13.96
2022-08-10T02:15:04.365Z,13.87
2022-08-10T02:18:03.198Z,13.81
2022-08-10T02:20:46.481Z,13.78
2022-08-10T02:23:27.079Z,13.79
2022-08-10T02:26:00.422Z,13.88
2022-08-10T02:28:34.146Z,13.83
2022-08-10T02:31:12.013Z,13.77
2022-08-10T02:33:56.312Z,13.77
2022-08-10T02:36:31.453Z,13.66
2022-08-10T02:39:04.676Z,13.67
2022-08-10T02:45:13.865Z,13.68
2022-08-10T02:45:20.720Z,13.67
2022-08-10T02:48:12.529Z,13.63
2022-08-10T02:50:47.507Z,13.58
2022-08-10T02:53:56.084Z,13.52
2022-08-10T02:56:28.859Z,13.51
2022-08-10T02:59:21.985Z,13.51
2022-08-10T03:01:55.816Z,13.53
2022-08-10T03:04:55.462Z,13.51
2022-08-10T03:07:43.376Z,13.45
2022-08-10T03:10:21.653Z,13.39
2022-08-10T03:12:56.492Z,13.40
2022-08-10T03:15:29.956Z,13.41
2022-08-10T03:18:02.107Z,13.40
2022-08-10T03:20:39.528Z,13.40
2022-08-10T03:23:15.165Z,13.41
2022-08-10T03:25:53.578Z,13.40
2022-08-10T03:28:30.665Z,13.41
2022-08-10T03:31:01.986Z,13.28
2022-08-10T03:33:38.601Z,13.44
2022-08-10T03:36:41.370Z,13.43
2022-08-10T03:39:00.056Z,13.42
2022-08-10T03:41:35.522Z,13.41
2022-08-10T03:44:08.264Z,13.40
2022-08-10T03:46:43.463Z,13.42
2022-08-10T03:49:15.041Z,13.43
2022-08-10T03:51:49.318Z,13.37
2022-08-10T03:54:19.904Z,13.45
2022-08-10T03:56:50.750Z,13.44
2022-08-10T03:59:21.992Z,13.44
2022-08-10T04:02:45.681Z,13.42
2022-08-10T04:04:43.304Z,13.51
2022-08-10T04:07:14.142Z,13.55
2022-08-10T04:09:54.228Z,13.45
2022-08-10T04:12:26.222Z,13.56
2022-08-10T04:14:56.382Z,13.60
2022-08-10T04:18:03.443Z,13.63
2022-08-10T04:20:25.596Z,13.68
2022-08-10T04:23:05.971Z,13.75
2022-08-10T04:25:39.271Z,13.79
2022-08-10T04:28:10.748Z,13.85
2022-08-10T04:30:42.743Z,13.90
2022-08-10T04:33:18.006Z,13.92
2022-08-10T04:35:50.144Z,14.05
2022-08-10T04:38:22.471Z,14.08
2022-08-10T04:40:53.733Z,14.18
2022-08-10T04:43:24.062Z,14.12
2022-08-10T04:45:54.360Z,14.26
2022-08-10T04:48:40.136Z,14.27
2022-08-10T04:51:19.172Z,14.37
2022-08-10T04:54:04.080Z,14.43
2022-08-10T04:56:38.605Z,14.46
2022-08-10T04:59:10.653Z,14.50
2022-08-10T05:02:22.483Z,14.53
2022-08-10T05:04:37.516Z,14.57
2022-08-10T05:07:18.644Z,14.62
2022-08-10T05:10:01.100Z,14.65
2022-08-10T05:12:38.917Z,14.75
2022-08-10T05:15:11.735Z,14.73
2022-08-10T05:18:03.127Z,14.74
2022-08-10T05:20:34.032Z,14.67
2022-08-10T05:23:04.287Z,14.81
2022-08-10T05:25:37.265Z,14.85
2022-08-10T05:28:08.513Z,14.82
2022-08-10T05:30:38.693Z,14.93
2022-08-10T05:33:09.310Z,14.96
2022-08-10T05:35:55.304Z,14.96
2022-08-10T05:38:29.601Z,15.09
2022-08-10T05:41:00.400Z,15.13
2022-08-10T05:43:30.578Z,15.13
2022-08-10T05:46:19.210Z,15.21
2022-08-10T05:48:59.534Z,15.24
2022-08-10T05:51:31.778Z,15.28
2022-08-10T05:54:06.874Z,15.29
2022-08-10T05:56:56.299Z,15.39
2022-08-10T06:00:33.588Z,15.45
2022-08-10T06:02:32.108Z,15.51
2022-08-10T06:05:13.870Z,15.54
2022-08-10T06:07:52.086Z,15.60
2022-08-10T06:10:32.295Z,15.55
2022-08-10T06:13:30.979Z,15.67
2022-08-10T06:16:07.496Z,15.68
2022-08-10T06:18:38.274Z,15.74
2022-08-10T06:21:09.842Z,15.79
2022-08-10T06:23:41.339Z,15.84
2022-08-10T06:26:15.604Z,15.89
2022-08-10T06:29:03.238Z,15.79
2022-08-10T06:31:47.588Z,15.95
2022-08-10T06:34:26.140Z,16.00
2022-08-10T06:37:00.365Z,16.06
2022-08-10T06:39:35.606Z,16.14
2022-08-10T06:42:29.681Z,16.19
2022-08-10T06:45:12.542Z,16.28
2022-08-10T06:47:49.345Z,16.33
2022-08-10T06:50:44.473Z,16.37
2022-08-10T06:53:22.267Z,16.46
2022-08-10T06:55:57.369Z,16.52
2022-08-10T06:58:35.866Z,16.55
2022-08-10T07:01:09.452Z,16.58
2022-08-10T07:03:46.567Z,16.64
2022-08-10T07:06:20.002Z,16.68
2022-08-10T07:08:52.167Z,16.78
2022-08-10T07:11:24.521Z,16.82
2022-08-10T07:14:14.347Z,16.86
2022-08-10T07:16:48.534Z,16.95
2022-08-10T07:19:20.273Z,17.02
2022-08-10T07:21:51.504Z,16.86
2022-08-10T07:24:28.856Z,17.03
2022-08-10T07:27:00.182Z,17.06
2022-08-10T07:29:53.243Z,17.10
2022-08-10T07:32:24.826Z,17.14
2022-08-10T07:34:57.357Z,17.22
2022-08-10T07:37:30.050Z,17.32
2022-08-10T07:40:04.866Z,17.34
2022-08-10T07:42:42.149Z,17.45
2022-08-10T07:45:15.692Z,17.61
2022-08-10T07:48:01.438Z,17.66
2022-08-10T07:50:36.867Z,17.70
2022-08-10T07:53:12.445Z,17.79
2022-08-10T07:56:04.866Z,17.79
2022-08-10T07:58:48.145Z,17.80
2022-08-10T08:01:29.718Z,17.86
2022-08-10T08:04:10.210Z,17.91
2022-08-10T08:06:43.326Z,17.88
2022-08-10T08:09:13.529Z,18.03
2022-08-10T08:11:44.909Z,18.19
2022-08-10T08:14:16.968Z,18.34
2022-08-10T08:16:50.732Z,18.53
2022-08-10T08:19:37.397Z,18.72
2022-08-10T08:24:05.628Z,18.84
2022-08-10T08:25:06.295Z,18.95
2022-08-10T08:27:40.907Z,19.01
2022-08-10T08:30:26.640Z,19.23
2022-08-10T08:32:59.470Z,19.08
2022-08-10T08:35:32.515Z,19.20
2022-08-10T08:38:30.273Z,19.25
2022-08-10T08:41:14.536Z,19.41
2022-08-10T08:43:56.770Z,19.52
2022-08-10T08:46:35.672Z,19.55
2022-08-10T08:50:04.494Z,19.51
2022-08-10T08:52:36.867Z,19.55
2022-08-10T08:56:04.767Z,19.58
2022-08-10T08:58:36.554Z,19.56
2022-08-10T09:01:37.967Z,19.57
2022-08-10T09:04:20.098Z,19.62
2022-08-10T09:08:00.730Z,19.60
2022-08-10T09:10:39.730Z,19.74
2022-08-10T09:13:31.648Z,19.76
2022-08-10T09:16:26.233Z,19.89
2022-08-10T09:19:36.280Z,20.02
2022-08-10T09:22:40.894Z,20.14
2022-08-10T09:25:45.307Z,20.05
2022-08-10T09:28:26.712Z,19.90
2022-08-10T09:36:28.988Z,19.90
2022-08-10T09:37:08.741Z,19.86
2022-08-10T09:40:58.103Z,19.88
2022-08-10T09:43:23.537Z,19.90
2022-08-10T09:46:11.833Z,19.89
2022-08-10T09:49:00.893Z,19.93
2022-08-10T09:51:49.354Z,20.07
2022-08-10T09:54:56.823Z,20.09
2022-08-10T09:57:57.040Z,20.15
2022-08-10T10:00:37.869Z,20.29
2022-08-10T10:03:17.747Z,20.25
2022-08-10T10:06:05.884Z,20.30
2022-08-10T10:08:40.728Z,20.26
2022-08-10T10:11:58.931Z,20.27
2022-08-10T10:15:09.741Z,20.31
2022-08-10T10:18:02.917Z,20.15
2022-08-10T10:20:51.025Z,20.18
2022-08-10T10:23:35.489Z,20.18
2022-08-10T10:26:30.324Z,20.33
2022-08-10T10:29:57.560Z,20.41
2022-08-10T10:32:24.733Z,20.31
2022-08-10T10:35:15.664Z,20.24
2022-08-10T10:38:01.806Z,20.21
2022-08-10T10:41:03.882Z,20.25
2022-08-10T10:44:21.861Z,20.25
2022-08-10T10:47:18.651Z,20.15
2022-08-10T10:50:06.534Z,20.18
2022-08-10T10:52:38.058Z,20.26
2022-08-10T10:55:32.385Z,20.35
2022-08-10T10:58:20.676Z,20.38
2022-08-10T11:01:16.746Z,20.43
2022-08-10T11:04:05.539Z,20.60
2022-08-10T11:06:50.597Z,20.59
2022-08-10T11:10:04.935Z,20.75
2022-08-10T11:12:55.717Z,20.86
2022-08-10T11:15:42.853Z,21.00
2022-08-10T11:18:28.213Z,20.99
2022-08-10T11:21:13.526Z,21.04
2022-08-10T11:24:46.778Z,20.84
2022-08-10T11:27:32.232Z,20.87
2022-08-10T11:30:11.168Z,20.76
2022-08-10T11:33:31.054Z,20.91
2022-08-10T11:36:52.302Z,20.87
2022-08-10T11:39:48.767Z,20.79
2022-08-10T11:42:43.354Z,20.79
2022-08-10T11:45:29.374Z,20.79
2022-08-10T11:48:09.226Z,20.87
2022-08-10T11:50:52.979Z,20.94
2022-08-10T11:53:41.493Z,21.24
2022-08-10T11:56:20.379Z,21.28
2022-08-10T11:59:17.172Z,21.30
2022-08-10T12:01:50.900Z,21.32
2022-08-10T12:04:23.760Z,21.34
2022-08-10T12:06:55.923Z,21.47
2022-08-10T12:10:08.702Z,21.56
2022-08-10T12:12:19.480Z,21.65
2022-08-10T12:15:02.794Z,21.78
2022-08-10T12:17:44.273Z,21.77
2022-08-10T12:20:29.241Z,22.06
2022-08-10T12:23:05.264Z,22.05
2022-08-10T12:25:56.721Z,22.24
2022-08-10T12:28:52.086Z,22.40
2022-08-10T12:31:35.267Z,22.65
2022-08-10T12:34:08.463Z,22.85
2022-08-10T12:36:43.077Z,22.96
2022-08-10T12:39:25.362Z,23.22
2022-08-10T12:42:39.055Z,23.56
2022-08-10T12:45:24.348Z,23.73
2022-08-10T12:48:05.651Z,23.66
2022-08-10T12:50:59.580Z,23.63
2022-08-10T12:54:02.631Z,23.52
2022-08-10T12:56:39.986Z,23.36
2022-08-10T12:59:12.930Z,23.50
2022-08-10T13:02:06.964Z,23.53
2022-08-10T13:04:39.444Z,23.75
2022-08-10T13:07:10.739Z,23.62
2022-08-10T13:10:14.987Z,23.67
2022-08-10T13:12:49.619Z,23.73
2022-08-10T13:15:48.614Z,23.65
2022-08-10T13:18:19.609Z,23.71
2022-08-10T13:20:55.153Z,23.87
2022-08-10T13:23:29.191Z,23.96
2022-08-10T13:26:02.924Z,23.98
2022-08-10T13:28:52.944Z,23.82
2022-08-10T13:32:03.694Z,23.86
2022-08-10T13:34:43.276Z,24.03
2022-08-10T13:37:17.931Z,24.08
2022-08-10T13:39:59.089Z,24.00
2022-08-10T13:42:40.078Z,24.16
2022-08-10T13:45:14.729Z,24.52
2022-08-10T13:47:50.178Z,24.59
2022-08-10T13:50:35.494Z,24.79
2022-08-10T13:53:15.202Z,24.69
2022-08-10T13:55:55.480Z,24.78
2022-08-10T13:58:32.842Z,24.91
2022-08-10T14:01:15.400Z,25.05
2022-08-10T14:03:48.124Z,25.13
2022-08-10T14:06:20.654Z,25.05
2022-08-10T14:08:57.262Z,25.12
2022-08-10T14:11:31.278Z,25.13
2022-08-10T14:14:21.799Z,24.98
2022-08-10T14:16:54.679Z,25.13
2022-08-10T14:19:29.792Z,25.34
2022-08-10T14:22:00.548Z,25.18
2022-08-10T14:24:32.758Z,25.10
2022-08-10T14:27:07.285Z,24.95
2022-08-10T14:30:05.475Z,24.95
2022-08-10T14:32:45.735Z,24.92
2022-08-10T14:36:22.643Z,24.95
2022-08-10T14:38:14.382Z,24.77
2022-08-10T14:40:47.408Z,24.88
2022-08-10T14:43:28.743Z,24.97
2022-08-10T14:46:05.822Z,25.31
2022-08-10T14:48:42.725Z,25.47
2022-08-10T14:51:17.980Z,25.74
2022-08-10T14:53:55.442Z,25.77
2022-08-10T14:56:30.062Z,25.70
2022-08-10T14:59:07.144Z,25.44
2022-08-10T15:02:01.423Z,25.45
2022-08-10T15:04:38.121Z,25.48
2022-08-10T15:07:24.274Z,25.49
2022-08-10T15:10:00.166Z,25.33
2022-08-10T15:12:36.206Z,25.39
2022-08-10T15:15:11.436Z,25.19
2022-08-10T15:17:53.177Z,24.99
2022-08-10T15:20:26.511Z,24.99
2022-08-10T15:23:07.054Z,25.02
2022-08-10T15:25:57.978Z,25.18
2022-08-10T15:29:21.957Z,25.11
2022-08-10T15:31:24.538Z,25.08
2022-08-10T15:34:16.560Z,24.85
2022-08-10T15:37:39.911Z,24.70
2022-08-10T15:40:24.474Z,24.77
2022-08-10T15:43:20.441Z,24.61
2022-08-10T15:45:57.679Z,24.52
2022-08-10T15:48:33.299Z,24.64
2022-08-10T15:51:08.104Z,24.90
2022-08-10T15:53:50.869Z,25.36
2022-08-10T15:56:28.840Z,25.80
2022-08-10T15:59:15.219Z,26.08
2022-08-10T16:02:13.199Z,26.16
2022-08-10T16:04:58.406Z,26.56
2022-08-10T16:07:49.091Z,26.74
2022-08-10T16:10:28.902Z,27.05
2022-08-10T16:13:50.358Z,26.96
2022-08-10T16:16:00.449Z,26.78
2022-08-10T16:18:34.908Z,26.58
2022-08-10T16:21:19.971Z,26.63
2022-08-10T16:24:14.470Z,26.44
2022-08-10T16:26:50.881Z,26.53
2022-08-10T16:29:25.577Z,26.26
2022-08-10T16:31:59.801Z,26.05
2022-08-10T16:34:32.888Z,25.87
2022-08-10T16:37:15.111Z,25.84
2022-08-10T16:40:01.164Z,25.76
2022-08-10T16:42:35.190Z,25.71
2022-08-10T16:45:12.242Z,25.59
2022-08-10T16:47:48.362Z,25.65
2022-08-10T16:50:27.009Z,25.70
2022-08-10T16:53:02.244Z,25.59
2022-08-10T16:55:48.768Z,25.71
2022-08-10T16:58:27.698Z,25.72
2022-08-10T17:01:24.221Z,25.85
2022-08-10T17:04:06.570Z,25.88
2022-08-10T17:06:44.238Z,25.85
2022-08-10T17:09:20.055Z,26.15
2022-08-10T17:11:54.795Z,26.43
2022-08-10T17:14:27.844Z,26.35
2022-08-10T17:17:06.288Z,26.38
2022-08-10T17:19:42.710Z,26.30
2022-08-10T17:22:21.274Z,26.06
2022-08-10T17:24:56.355Z,25.71
2022-08-10T17:28:04.733Z,25.55
2022-08-10T17:30:34.122Z,25.51
2022-08-10T17:33:12.590Z,25.77
2022-08-10T17:35:49.962Z,25.65
2022-08-10T17:38:24.164Z,25.11
2022-08-10T17:41:03.821Z,24.79
2022-08-10T17:43:46.687Z,24.46
2022-08-10T17:46:31.212Z,24.15
2022-08-10T17:49:07.137Z,23.91
2022-08-10T17:51:40.335Z,23.66
2022-08-10T17:54:30.710Z,23.53
2022-08-10T17:57:15.407Z,23.28
2022-08-10T17:59:47.200Z,23.04
2022-08-10T18:02:21.870Z,22.79
2022-08-10T18:04:56.720Z,22.49
2022-08-10T18:07:35.553Z,22.33
2022-08-10T18:10:11.098Z,22.14
2022-08-10T18:12:46.033Z,21.96
2022-08-10T18:15:22.296Z,21.65
2022-08-10T18:18:00.958Z,21.44
2022-08-10T18:20:35.386Z,21.07
2022-08-10T18:23:07.972Z,20.97
2022-08-10T18:25:41.945Z,20.75
2022-08-10T18:28:18.214Z,20.65
2022-08-10T18:30:54.077Z,20.47
2022-08-10T18:33:28.997Z,20.21
2022-08-10T18:36:03.438Z,20.07
2022-08-10T18:38:36.710Z,19.82
2022-08-10T18:41:15.991Z,19.63
2022-08-10T18:44:18.452Z,19.54
2022-08-10T18:46:57.349Z,19.34
2022-08-10T18:49:32.424Z,19.19
2022-08-10T18:52:06.004Z,19.03
2022-08-10T18:54:45.793Z,18.87
2022-08-10T18:57:44.992Z,18.94
2022-08-10T19:00:17.581Z,18.89
2022-08-10T19:02:53.807Z,18.83
2022-08-10T19:05:54.632Z,18.75
2022-08-10T19:08:31.342Z,18.77
2022-08-10T19:11:20.143Z,18.75
2022-08-10T19:14:00.809Z,18.60
2022-08-10T19:16:48.978Z,18.65
2022-08-10T19:19:48.289Z,18.62
2022-08-10T19:22:29.044Z,18.57
2022-08-10T19:25:05.837Z,18.51
2022-08-10T19:28:10.440Z,18.37
2022-08-10T19:30:59.125Z,18.18
2022-08-10T19:34:11.341Z,18.08
2022-08-10T19:36:42.393Z,18.12
2022-08-10T19:39:24.610Z,18.03
2022-08-10T19:42:11.933Z,17.97
2022-08-10T19:46:01.304Z,17.88
2022-08-10T19:48:36.220Z,17.84
2022-08-10T19:51:49.666Z,17.83
2022-08-10T19:54:45.746Z,17.79
2022-08-10T19:57:37.654Z,17.74
2022-08-10T20:00:19.373Z,17.74
2022-08-10T20:03:03.076Z,17.73
2022-08-10T20:05:39.398Z,17.70
2022-08-10T20:08:20.208Z,17.69
2022-08-10T20:11:44.086Z,17.67
2022-08-10T20:14:22.054Z,17.65
2022-08-10T20:17:03.767Z,17.52
2022-08-10T20:19:53.307Z,17.59
2022-08-10T20:22:32.632Z,17.57
2022-08-10T20:25:13.941Z,17.50
2022-08-10T20:27:58.947Z,17.43
2022-08-10T20:30:38.280Z,17.47
2022-08-10T20:33:19.844Z,17.43
2022-08-10T20:35:56.501Z,17.37
2022-08-10T20:39:05.247Z,17.39
2022-08-10T20:42:01.763Z,17.34
2022-08-10T20:44:58.747Z,17.24
2022-08-10T20:47:53.765Z,17.23
2022-08-10T20:50:39.670Z,17.17
2022-08-10T20:53:14.596Z,17.16
2022-08-10T20:56:00.394Z,17.12
2022-08-10T20:59:17.473Z,17.21
2022-08-10T21:02:11.720Z,17.18
2022-08-10T21:05:10.433Z,17.16
2022-08-10T21:08:01.065Z,17.15
2022-08-10T21:10:53.692Z,17.11
2022-08-10T21:14:02.934Z,17.08
2022-08-10T21:16:52.019Z,17.06
2022-08-10T21:20:07.110Z,16.86
2022-08-10T21:22:48.760Z,16.92
2022-08-10T21:25:26.103Z,16.94
2022-08-10T21:28:03.355Z,16.97
2022-08-10T21:31:21.904Z,16.95
2022-08-10T21:34:12.942Z,16.93
2022-08-10T21:36:52.180Z,16.85
2022-08-10T21:39:58.168Z,16.83
2022-08-10T21:43:17.180Z,16.81
2022-08-10T21:46:09.446Z,16.74
2022-08-10T21:49:05.079Z,16.64
2022-08-10T21:52:05.211Z,16.71
2022-08-10T21:55:18.850Z,16.65
2022-08-10T21:58:27.559Z,16.59
2022-08-10T22:01:39.538Z,16.53
2022-08-10T22:04:29.628Z,16.50
2022-08-10T22:11:15.656Z,16.44
2022-08-10T22:14:06.416Z,16.34
2022-08-10T22:17:04.275Z,16.31
2022-08-10T22:20:00.310Z,16.27
2022-08-10T22:23:19.045Z,16.25
2022-08-10T22:26:28.738Z,16.22
2022-08-10T22:29:20.304Z,16.21
2022-08-10T22:32:35.410Z,16.07
2022-08-10T22:35:54.994Z,16.13
2022-08-10T22:40:12.153Z,16.11
2022-08-10T22:42:58.142Z,16.06
2022-08-10T22:45:50.185Z,15.96
2022-08-10T22:48:39.758Z,15.89
2022-08-10T22:51:20.949Z,15.96
2022-08-10T22:54:31.057Z,15.93
2022-08-10T22:57:21.769Z,15.85
2022-08-10T22:59:52.353Z,15.83
2022-08-10T23:02:34.239Z,15.84
2022-08-10T23:05:14.981Z,15.88
2022-08-10T23:07:54.848Z,15.89
2022-08-10T23:10:29.348Z,15.90
2022-08-10T23:13:36.375Z,15.89
2022-08-10T23:16:40.898Z,15.88
2022-08-10T23:19:28.676Z,15.77
2022-08-10T23:22:07.970Z,15.82
2022-08-10T23:24:44.205Z,15.79
2022-08-10T23:27:37.746Z,15.77
2022-08-10T23:30:17.934Z,15.75
2022-08-10T23:32:52.403Z,15.70
2022-08-10T23:36:27.751Z,15.66
2022-08-10T23:38:23.181Z,15.63
2022-08-10T23:40:56.898Z,15.61
2022-08-10T23:44:00.877Z,15.59
2022-08-10T23:46:28.914Z,15.58
2022-08-10T23:49:01.741Z,15.56
2022-08-10T23:51:56.348Z,15.45
2022-08-10T23:54:29.581Z,15.52
2022-08-10T23:57:01.859Z,15.49
2022-08-10T23:59:32.838Z,15.47
